createdAt,value
2019-06-08T00:00:13.063Z,18.40
2019-06-08T00:01:12.269Z,18.54
2019-06-08T00:02:12.545Z,18.47
2019-06-08T00:03:13.064Z,18.43
2019-06-08T00:04:12.862Z,18.44
2019-06-08T00:05:12.469Z,18.39
2019-06-08T00:06:12.497Z,18.42
2019-06-08T00:07:12.965Z,18.40
2019-06-08T00:08:12.905Z,18.42
2019-06-08T00:09:11.178Z,18.50
2019-06-08T00:10:11.151Z,18.47
2019-06-08T00:11:11.156Z,18.47
2019-06-08T00:12:11.191Z,18.42
2019-06-08T00:13:11.175Z,18.39
2019-06-08T00:14:11.165Z,18.42
2019-06-08T00:15:11.152Z,18.44
2019-06-08T00:16:11.150Z,18.39
2019-06-08T00:17:24.300Z,18.27
2019-06-08T00:18:11.221Z,18.34
2019-06-08T00:19:11.152Z,18.33
2019-06-08T00:20:11.159Z,18.36
2019-06-08T00:21:11.146Z,18.39
2019-06-08T00:22:11.155Z,18.34
2019-06-08T00:23:11.144Z,18.36
2019-06-08T00:24:11.154Z,18.39
2019-06-08T00:25:11.157Z,18.40
2019-06-08T00:26:11.158Z,18.40
2019-06-08T00:27:11.159Z,18.37
2019-06-08T00:28:11.145Z,18.39
2019-06-08T00:29:11.170Z,18.33
2019-06-08T00:30:11.167Z,18.39
2019-06-08T00:31:11.170Z,18.34
2019-06-08T00:32:11.144Z,18.37
2019-06-08T00:33:11.148Z,18.21
2019-06-08T00:34:11.167Z,18.28
2019-06-08T00:35:11.143Z,18.24
2019-06-08T00:36:11.133Z,18.22
2019-06-08T00:37:11.149Z,18.29
2019-06-08T00:38:11.132Z,18.31
2019-06-08T00:39:11.152Z,18.36
2019-06-08T00:40:11.166Z,18.28
2019-06-08T00:41:11.135Z,18.34
2019-06-08T00:42:11.138Z,18.36
2019-06-08T00:43:11.138Z,18.31
2019-06-08T00:44:11.165Z,18.29
2019-06-08T00:45:11.129Z,18.25
2019-06-08T00:46:11.135Z,18.21
2019-06-08T00:47:11.139Z,18.15
2019-06-08T00:48:11.130Z,18.17
2019-06-08T00:49:11.147Z,18.24
2019-06-08T00:50:11.134Z,18.25
2019-06-08T00:51:11.128Z,18.22
2019-06-08T00:52:11.125Z,18.21
2019-06-08T00:53:11.126Z,18.25
2019-06-08T00:54:11.130Z,18.28
2019-06-08T00:55:11.127Z,18.28
2019-06-08T00:56:11.126Z,18.31
2019-06-08T00:57:11.143Z,18.25
2019-06-08T00:58:11.219Z,18.24
2019-06-08T00:59:11.128Z,18.22
2019-06-08T01:00:11.633Z,18.33
2019-06-08T01:01:11.146Z,18.27
2019-06-08T01:02:11.120Z,18.22
2019-06-08T01:03:11.120Z,18.25
2019-06-08T01:04:11.119Z,18.28
2019-06-08T01:05:11.115Z,18.29
2019-06-08T01:06:11.170Z,18.25
2019-06-08T01:07:11.112Z,18.31
2019-06-08T01:08:11.260Z,18.27
2019-06-08T01:09:11.111Z,18.24
2019-06-08T01:10:11.156Z,18.25
2019-06-08T01:11:11.110Z,18.17
2019-06-08T01:12:11.165Z,18.15
2019-06-08T01:13:11.119Z,18.18
2019-06-08T01:14:11.154Z,18.18
2019-06-08T01:15:11.158Z,18.10
2019-06-08T01:16:11.181Z,18.13
2019-06-08T01:17:11.150Z,18.13
2019-06-08T01:18:11.187Z,18.17
2019-06-08T01:19:11.108Z,18.04
2019-06-08T01:20:11.108Z,18.13
2019-06-08T01:21:11.120Z,18.02
2019-06-08T01:22:11.110Z,18.09
2019-06-08T01:23:11.099Z,18.04
2019-06-08T01:24:11.143Z,18.09
2019-06-08T01:25:11.102Z,18.12
2019-06-08T01:26:11.093Z,18.10
2019-06-08T01:27:11.113Z,18.09
2019-06-08T01:28:11.116Z,18.06
2019-06-08T01:29:11.120Z,18.06
2019-06-08T01:30:11.127Z,18.02
2019-06-08T01:31:11.110Z,18.03
2019-06-08T01:32:11.130Z,18.04
2019-06-08T01:33:11.110Z,18.02
2019-06-08T01:34:11.228Z,17.92
2019-06-08T01:35:11.107Z,17.94
2019-06-08T01:36:11.100Z,18.00
2019-06-08T01:37:11.108Z,17.99
2019-06-08T01:38:11.091Z,18.03
2019-06-08T01:39:11.097Z,17.99
2019-06-08T01:40:11.096Z,17.94
2019-06-08T01:41:11.086Z,17.97
2019-06-08T01:42:11.084Z,17.95
2019-06-08T01:43:11.084Z,17.97
2019-06-08T01:44:11.082Z,18.03
2019-06-08T01:45:11.083Z,18.00
2019-06-08T01:46:11.089Z,18.03
2019-06-08T01:47:11.100Z,18.06
2019-06-08T01:48:19.850Z,17.91
2019-06-08T01:49:11.101Z,17.84
2019-06-08T01:50:11.088Z,17.88
2019-06-08T01:51:11.091Z,17.85
2019-06-08T01:52:11.093Z,17.79
2019-06-08T01:53:11.073Z,17.78
2019-06-08T01:54:11.083Z,17.73
2019-06-08T01:55:11.076Z,17.88
2019-06-08T01:56:11.071Z,17.95
2019-06-08T01:57:11.070Z,17.88
2019-06-08T01:58:11.072Z,17.81
2019-06-08T01:59:11.069Z,17.78
2019-06-08T02:00:29.102Z,17.82
2019-06-08T02:01:11.067Z,17.84
2019-06-08T02:02:11.066Z,17.79
2019-06-08T02:03:11.072Z,17.79
2019-06-08T02:04:11.069Z,17.94
2019-06-08T02:05:11.083Z,17.87
2019-06-08T02:06:11.057Z,17.81
2019-06-08T02:07:11.103Z,17.81
2019-06-08T02:08:11.090Z,17.88
2019-06-08T02:09:11.061Z,17.81
2019-06-08T02:10:11.063Z,17.81
2019-06-08T02:11:11.064Z,17.78
2019-06-08T02:12:11.061Z,17.71
2019-06-08T02:13:11.067Z,17.69
2019-06-08T02:14:11.068Z,17.76
2019-06-08T02:15:11.062Z,17.76
2019-06-08T02:16:11.104Z,17.70
2019-06-08T02:17:11.052Z,17.79
2019-06-08T02:18:11.057Z,17.57
2019-06-08T02:19:11.060Z,17.71
2019-06-08T02:20:11.051Z,17.76
2019-06-08T02:21:11.078Z,17.70
2019-06-08T02:22:11.080Z,17.69
2019-06-08T02:23:11.052Z,17.76
2019-06-08T02:24:11.049Z,17.66
2019-06-08T02:25:11.063Z,17.67
2019-06-08T02:26:11.046Z,17.74
2019-06-08T02:27:11.136Z,17.70
2019-06-08T02:28:11.043Z,17.71
2019-06-08T02:29:11.058Z,17.71
2019-06-08T02:30:11.044Z,17.71
2019-06-08T02:31:11.079Z,17.73
2019-06-08T02:32:11.038Z,17.69
2019-06-08T02:33:11.047Z,17.71
2019-06-08T02:34:11.050Z,17.62
2019-06-08T02:35:11.050Z,17.38
2019-06-08T02:36:11.038Z,17.50
2019-06-08T02:37:11.033Z,17.53
2019-06-08T02:38:11.037Z,17.64
2019-06-08T02:39:11.031Z,17.57
2019-06-08T02:40:11.029Z,17.71
2019-06-08T02:41:11.033Z,17.78
2019-06-08T02:42:11.033Z,17.73
2019-06-08T02:43:11.055Z,17.73
2019-06-08T02:44:11.027Z,17.71
2019-06-08T02:45:11.023Z,17.57
2019-06-08T02:46:11.025Z,17.59
2019-06-08T02:47:11.023Z,17.51
2019-06-08T02:48:11.025Z,17.55
2019-06-08T02:49:11.028Z,17.41
2019-06-08T02:50:11.022Z,17.36
2019-06-08T02:51:11.023Z,17.48
2019-06-08T02:52:11.022Z,17.62
2019-06-08T02:53:11.019Z,17.48
2019-06-08T02:54:11.021Z,17.29
2019-06-08T02:55:11.031Z,17.40
2019-06-08T02:56:11.014Z,17.28
2019-06-08T02:57:11.019Z,17.32
2019-06-08T02:58:11.012Z,17.33
2019-06-08T02:59:11.011Z,17.43
2019-06-08T03:00:11.020Z,17.38
2019-06-08T03:01:11.009Z,17.44
2019-06-08T03:02:11.014Z,17.44
2019-06-08T03:03:11.020Z,17.50
2019-06-08T03:04:11.021Z,17.51
2019-06-08T03:05:11.001Z,17.33
2019-06-08T03:06:11.011Z,17.26
2019-06-08T03:07:11.010Z,17.41
2019-06-08T03:08:11.016Z,17.35
2019-06-08T03:09:11.007Z,17.32
2019-06-08T03:10:11.000Z,17.25
2019-06-08T03:11:11.009Z,17.35
2019-06-08T03:12:11.000Z,17.29
2019-06-08T03:13:11.004Z,17.32
2019-06-08T03:14:11.001Z,17.30
2019-06-08T03:15:11.004Z,17.32
2019-06-08T03:16:10.992Z,17.25
2019-06-08T03:17:11.014Z,17.23
2019-06-08T03:18:10.991Z,17.28
2019-06-08T03:19:21.912Z,17.28
2019-06-08T03:20:10.986Z,17.35
2019-06-08T03:21:10.994Z,17.46
2019-06-08T03:22:11.234Z,17.48
2019-06-08T03:23:10.994Z,17.44
2019-06-08T03:24:11.016Z,17.46
2019-06-08T03:25:10.981Z,17.47
2019-06-08T03:26:11.000Z,17.54
2019-06-08T03:27:10.994Z,17.63
2019-06-08T03:28:10.985Z,17.51
2019-06-08T03:29:10.989Z,17.59
2019-06-08T03:30:17.018Z,17.55
2019-06-08T03:31:10.993Z,17.53
2019-06-08T03:32:10.988Z,17.55
2019-06-08T03:33:10.993Z,17.57
2019-06-08T03:34:11.004Z,17.55
2019-06-08T03:35:11.015Z,17.62
2019-06-08T03:36:10.977Z,17.46
2019-06-08T03:37:10.979Z,17.46
2019-06-08T03:38:10.991Z,17.57
2019-06-08T03:39:10.976Z,17.51
2019-06-08T03:40:10.974Z,17.50
2019-06-08T03:41:10.968Z,17.38
2019-06-08T03:42:10.969Z,17.50
2019-06-08T03:43:10.973Z,17.46
2019-06-08T03:44:10.970Z,17.47
2019-06-08T03:45:10.963Z,17.36
2019-06-08T03:46:10.963Z,17.26
2019-06-08T03:47:10.976Z,17.29
2019-06-08T03:48:10.966Z,17.33
2019-06-08T03:49:10.980Z,17.35
2019-06-08T03:50:10.961Z,17.44
2019-06-08T03:51:10.957Z,17.41
2019-06-08T03:52:10.968Z,17.43
2019-06-08T03:53:10.973Z,17.29
2019-06-08T03:54:10.961Z,17.29
2019-06-08T03:55:10.982Z,17.32
2019-06-08T03:56:10.959Z,17.33
2019-06-08T03:57:10.953Z,17.36
2019-06-08T03:58:10.953Z,17.30
2019-06-08T03:59:10.965Z,17.36
2019-06-08T04:00:13.338Z,17.38
2019-06-08T04:01:18.300Z,17.33
2019-06-08T04:03:04.503Z,17.43
2019-06-08T04:04:13.120Z,17.26
2019-06-08T04:23:47.396Z,17.20
2019-06-08T04:24:47.260Z,17.17
2019-06-08T04:26:52.723Z,17.29
2019-06-08T04:27:51.723Z,17.43
2019-06-08T04:28:51.716Z,17.46
2019-06-08T04:29:51.731Z,17.44
2019-06-08T04:30:51.789Z,17.41
2019-06-08T04:31:51.710Z,17.32
2019-06-08T04:32:51.700Z,17.29
2019-06-08T04:33:51.703Z,17.33
2019-06-08T04:34:51.699Z,17.28
2019-06-08T04:35:51.690Z,17.26
2019-06-08T04:36:51.698Z,17.33
2019-06-08T04:37:51.689Z,17.29
2019-06-08T04:38:51.687Z,17.29
2019-06-08T04:39:51.694Z,17.44
2019-06-08T04:40:51.701Z,17.41
2019-06-08T04:41:51.708Z,17.38
2019-06-08T04:42:51.695Z,17.48
2019-06-08T04:43:51.690Z,18.09
2019-06-08T04:44:51.693Z,18.84
2019-06-08T04:45:51.684Z,18.91
2019-06-08T04:46:51.697Z,18.67
2019-06-08T04:47:51.678Z,19.10
2019-06-08T04:48:51.672Z,18.83
2019-06-08T04:49:51.688Z,18.87
2019-06-08T04:50:51.687Z,18.62
2019-06-08T04:51:51.706Z,18.70
2019-06-08T04:52:51.711Z,19.01
2019-06-08T04:53:51.690Z,19.24
2019-06-08T04:54:51.696Z,19.51
2019-06-08T04:55:51.703Z,20.08
2019-06-08T04:56:51.716Z,20.16
2019-06-08T04:57:51.715Z,21.38
2019-06-08T04:58:51.761Z,22.09
2019-06-08T04:59:51.722Z,22.53
2019-06-08T05:00:51.730Z,22.78
2019-06-08T05:01:51.744Z,22.78
2019-06-08T05:02:51.750Z,22.54
2019-06-08T05:03:51.781Z,22.99
2019-06-08T05:04:51.766Z,23.85
2019-06-08T05:05:51.776Z,24.38
2019-06-08T05:06:51.791Z,23.82
2019-06-08T05:07:51.801Z,24.10
2019-06-08T05:08:51.810Z,24.98
2019-06-08T05:09:51.818Z,24.47
2019-06-08T05:10:51.826Z,24.52
2019-06-08T05:11:51.849Z,24.98
2019-06-08T05:12:51.857Z,25.67
2019-06-08T05:13:51.875Z,25.94
2019-06-08T05:14:51.888Z,26.36
2019-06-08T05:15:51.896Z,26.58
2019-06-08T05:16:51.911Z,26.98
2019-06-08T05:17:51.937Z,26.20
2019-06-08T05:18:51.932Z,26.95
2019-06-08T05:19:52.019Z,26.77
2019-06-08T05:20:52.002Z,27.26
2019-06-08T05:21:52.024Z,28.17
2019-06-08T05:22:52.032Z,28.56
2019-06-08T05:23:58.630Z,28.73
2019-06-08T05:24:52.032Z,28.53
2019-06-08T05:25:52.050Z,28.77
2019-06-08T05:26:52.071Z,29.37
2019-06-08T05:27:52.080Z,28.81
2019-06-08T05:28:52.105Z,29.53
2019-06-08T05:29:52.108Z,29.79
2019-06-08T05:30:52.131Z,29.70
2019-06-08T05:31:52.149Z,30.18
2019-06-08T05:32:52.156Z,29.78
2019-06-08T05:33:52.171Z,29.13
2019-06-08T05:34:52.191Z,28.80
2019-06-08T05:35:52.197Z,29.31
2019-06-08T05:36:52.224Z,29.79
2019-06-08T05:37:52.245Z,30.11
2019-06-08T05:38:52.253Z,30.24
2019-06-08T05:39:52.307Z,30.36
2019-06-08T05:40:52.290Z,30.68
2019-06-08T05:41:53.244Z,31.24
2019-06-08T05:42:52.326Z,31.53
2019-06-08T05:43:52.333Z,31.24
2019-06-08T05:44:52.351Z,31.31
2019-06-08T05:45:52.373Z,31.40
2019-06-08T05:46:52.383Z,30.27
2019-06-08T05:47:52.398Z,30.75
2019-06-08T05:48:52.419Z,30.69
2019-06-08T05:49:52.425Z,29.63
2019-06-08T05:51:03.343Z,30.52
2019-06-08T05:51:52.462Z,29.79
2019-06-08T05:52:52.493Z,30.50
2019-06-08T05:53:52.496Z,31.42
2019-06-08T05:54:52.518Z,30.65
2019-06-08T05:55:52.547Z,30.33
2019-06-08T05:56:52.540Z,30.87
2019-06-08T05:57:52.556Z,31.23
2019-06-08T05:58:52.565Z,30.46
2019-06-08T05:59:52.588Z,30.72
2019-06-08T06:00:52.590Z,29.07
2019-06-08T06:01:52.635Z,30.50
2019-06-08T06:02:52.619Z,29.84
2019-06-08T06:03:52.636Z,30.43
2019-06-08T06:04:53.964Z,30.02
2019-06-08T06:05:52.687Z,30.52
2019-06-08T06:06:52.682Z,29.72
2019-06-08T06:07:52.691Z,29.28
2019-06-08T06:08:52.702Z,29.77
2019-06-08T06:09:52.704Z,29.19
2019-06-08T06:10:52.731Z,27.76
2019-06-08T06:11:52.735Z,27.09
2019-06-08T06:12:52.746Z,25.47
2019-06-08T06:13:52.752Z,24.60
2019-06-08T06:14:52.765Z,24.71
2019-06-08T06:15:52.823Z,24.32
2019-06-08T06:16:52.796Z,23.95
2019-06-08T06:17:52.804Z,23.32
2019-06-08T06:18:52.853Z,23.39
2019-06-08T06:19:52.878Z,23.68
2019-06-08T06:20:52.836Z,23.79
2019-06-08T06:21:52.849Z,23.55
2019-06-08T06:22:52.860Z,23.02
2019-06-08T06:23:52.875Z,22.57
2019-06-08T06:24:52.876Z,22.01
2019-06-08T06:25:52.907Z,21.64
2019-06-08T06:26:52.900Z,21.74
2019-06-08T06:27:52.900Z,21.61
2019-06-08T06:28:52.907Z,21.19
2019-06-08T06:30:01.696Z,21.06
2019-06-08T06:32:06.411Z,20.96
2019-06-08T06:33:06.100Z,20.93
2019-06-08T06:35:01.941Z,20.51
2019-06-08T06:36:01.912Z,20.80
2019-06-08T06:37:01.925Z,20.59
2019-06-08T06:38:01.932Z,20.59
2019-06-08T06:39:01.964Z,20.56
2019-06-08T06:40:01.942Z,20.54
2019-06-08T06:41:01.976Z,20.24
2019-06-08T06:42:01.941Z,20.18
2019-06-08T06:43:01.951Z,20.23
2019-06-08T06:44:01.946Z,20.31
2019-06-08T06:45:01.957Z,20.28
2019-06-08T06:46:01.957Z,20.34
2019-06-08T06:47:01.962Z,20.43
2019-06-08T06:48:01.962Z,20.15
2019-06-08T06:49:01.972Z,20.24
2019-06-08T06:50:02.039Z,20.05
2019-06-08T06:51:02.068Z,20.09
2019-06-08T06:52:01.970Z,19.94
2019-06-08T06:53:01.981Z,20.12
2019-06-08T06:54:02.047Z,20.05
2019-06-08T06:55:01.998Z,20.05
2019-06-08T06:56:02.036Z,19.87
2019-06-08T06:57:02.067Z,19.90
2019-06-08T06:58:02.046Z,19.97
2019-06-08T06:59:02.021Z,19.69
2019-06-08T07:00:02.026Z,19.66
2019-06-08T07:01:02.043Z,19.63
2019-06-08T07:02:02.005Z,19.58
2019-06-08T07:03:02.001Z,19.53
2019-06-08T07:04:02.001Z,19.66
2019-06-08T07:06:41.997Z,19.54
2019-06-08T07:07:41.906Z,19.53
2019-06-08T07:08:42.124Z,19.55
2019-06-08T07:09:41.910Z,19.53
2019-06-08T07:10:41.922Z,19.50
2019-06-08T07:11:42.846Z,19.54
2019-06-08T07:12:41.981Z,19.50
2019-06-08T07:13:41.912Z,19.54
2019-06-08T07:14:41.912Z,19.53
2019-06-08T07:15:42.081Z,19.51
2019-06-08T07:16:41.932Z,19.36
2019-06-08T07:17:41.930Z,19.35
2019-06-08T07:18:41.937Z,19.42
2019-06-08T07:19:41.925Z,19.24
2019-06-08T07:20:41.950Z,19.32
2019-06-08T07:21:42.285Z,19.13
2019-06-08T07:22:41.960Z,19.06
2019-06-08T07:23:41.933Z,19.10
2019-06-08T07:24:41.931Z,19.08
2019-06-08T07:25:41.924Z,19.08
2019-06-08T07:26:41.926Z,19.05
2019-06-08T07:27:41.919Z,19.08
2019-06-08T07:28:41.921Z,19.28
2019-06-08T07:29:41.933Z,18.91
2019-06-08T07:30:41.944Z,18.95
2019-06-08T07:31:51.629Z,18.73
2019-06-08T07:33:35.368Z,18.73
2019-06-08T07:34:35.337Z,18.76
2019-06-08T07:35:35.337Z,18.94
2019-06-08T07:36:35.361Z,19.01
2019-06-08T07:37:35.394Z,18.92
2019-06-08T07:38:35.334Z,18.94
2019-06-08T07:39:35.343Z,18.84
2019-06-08T07:40:35.337Z,19.06
2019-06-08T07:41:35.336Z,19.08
2019-06-08T07:42:35.341Z,19.14
2019-06-08T07:43:35.343Z,19.15
2019-06-08T07:44:35.336Z,19.10
2019-06-08T07:45:35.347Z,19.02
2019-06-08T07:46:35.360Z,18.94
2019-06-08T07:47:35.361Z,18.97
2019-06-08T07:48:35.353Z,18.97
2019-06-08T07:49:35.346Z,18.92
2019-06-08T07:50:35.353Z,18.97
2019-06-08T07:51:35.355Z,18.98
2019-06-08T07:52:35.352Z,19.06
2019-06-08T07:53:35.356Z,19.06
2019-06-08T07:54:35.348Z,19.10
2019-06-08T07:55:35.352Z,18.99
2019-06-08T07:56:35.353Z,18.95
2019-06-08T07:57:35.389Z,19.02
2019-06-08T07:58:35.351Z,19.02
2019-06-08T07:59:35.366Z,18.98
2019-06-08T08:00:35.354Z,18.91
2019-06-08T08:01:36.666Z,18.94
2019-06-08T08:02:35.375Z,18.90
2019-06-08T08:03:35.366Z,18.87
2019-06-08T08:04:35.365Z,18.87
2019-06-08T08:05:35.381Z,18.80
2019-06-08T08:06:35.375Z,18.76
2019-06-08T08:07:35.371Z,18.86
2019-06-08T08:08:35.427Z,18.99
2019-06-08T08:09:35.390Z,18.98
2019-06-08T08:10:35.354Z,18.97
2019-06-08T08:11:35.417Z,19.05
2019-06-08T08:12:35.373Z,18.94
2019-06-08T08:13:35.365Z,19.01
2019-06-08T08:14:35.388Z,19.11
2019-06-08T08:15:35.365Z,19.08
2019-06-08T08:16:35.401Z,18.95
2019-06-08T08:17:35.374Z,19.01
2019-06-08T08:18:35.363Z,19.01
2019-06-08T08:19:35.375Z,19.10
2019-06-08T08:20:35.365Z,19.11
2019-06-08T08:21:35.381Z,19.10
2019-06-08T08:22:35.376Z,19.05
2019-06-08T08:23:35.366Z,19.13
2019-06-08T08:24:35.368Z,19.11
2019-06-08T08:25:37.775Z,19.13
2019-06-08T08:26:35.399Z,19.20
2019-06-08T08:27:37.366Z,19.28
2019-06-08T08:28:37.546Z,19.17
2019-06-08T08:29:38.021Z,19.17
2019-06-08T08:30:37.594Z,19.10
2019-06-08T08:31:37.292Z,19.05
2019-06-08T08:32:37.822Z,19.05
2019-06-08T08:33:35.376Z,19.02
2019-06-08T08:34:35.371Z,19.08
2019-06-08T08:35:35.380Z,19.02
2019-06-08T08:36:37.912Z,19.17
2019-06-08T08:37:35.393Z,19.18
2019-06-08T08:38:35.390Z,19.20
2019-06-08T08:39:37.465Z,19.17
2019-06-08T08:40:35.418Z,19.33
2019-06-08T08:41:35.383Z,19.29
2019-06-08T08:42:38.285Z,19.25
2019-06-08T08:43:37.549Z,19.29
2019-06-08T08:44:37.799Z,19.18
2019-06-08T08:45:37.348Z,19.11
2019-06-08T08:46:35.421Z,19.10
2019-06-08T08:47:35.392Z,19.14
2019-06-08T08:48:37.596Z,19.18
2019-06-08T08:49:37.811Z,19.06
2019-06-08T08:50:35.394Z,19.21
2019-06-08T08:51:37.642Z,19.11
2019-06-08T08:52:39.881Z,19.11
2019-06-08T08:53:37.417Z,19.17
2019-06-08T08:54:37.560Z,19.20
2019-06-08T08:55:37.817Z,19.08
2019-06-08T08:56:35.401Z,19.13
2019-06-08T08:57:35.429Z,19.10
2019-06-08T08:58:35.414Z,19.15
2019-06-08T08:59:35.397Z,19.06
2019-06-08T09:00:38.296Z,19.08
2019-06-08T09:01:35.432Z,19.06
2019-06-08T09:02:37.310Z,19.08
2019-06-08T09:03:35.407Z,19.20
2019-06-08T09:04:44.221Z,19.33
2019-06-08T09:08:19.358Z,19.33
2019-06-08T09:09:21.584Z,19.20
2019-06-08T09:10:19.306Z,19.13
2019-06-08T09:11:19.307Z,19.24
2019-06-08T09:12:19.364Z,19.20
2019-06-08T09:13:19.378Z,18.97
2019-06-08T09:14:19.419Z,18.95
2019-06-08T09:15:19.424Z,18.99
2019-06-08T09:16:19.298Z,18.99
2019-06-08T09:17:19.313Z,18.98
2019-06-08T09:18:19.314Z,18.98
2019-06-08T09:19:21.028Z,19.05
2019-06-08T09:20:19.556Z,19.08
2019-06-08T09:21:19.342Z,19.10
2019-06-08T09:22:19.312Z,19.18
2019-06-08T09:23:21.778Z,19.17
2019-06-08T09:24:19.313Z,19.10
2019-06-08T09:25:19.320Z,19.28
2019-06-08T09:26:19.295Z,19.23
2019-06-08T09:27:19.341Z,19.29
2019-06-08T09:28:19.352Z,19.23
2019-06-08T09:29:19.390Z,19.21
2019-06-08T09:30:19.316Z,19.25
2019-06-08T09:31:19.334Z,19.23
2019-06-08T09:32:19.333Z,19.33
2019-06-08T09:33:19.312Z,19.33
2019-06-08T09:34:19.644Z,19.39
2019-06-08T09:35:21.304Z,19.50
2019-06-08T09:36:19.323Z,19.36
2019-06-08T09:37:19.339Z,19.53
2019-06-08T09:38:19.337Z,19.51
2019-06-08T09:39:19.335Z,19.58
2019-06-08T09:40:19.349Z,19.61
2019-06-08T09:41:19.369Z,19.63
2019-06-08T09:42:21.230Z,19.55
2019-06-08T09:43:19.314Z,19.61
2019-06-08T09:44:19.383Z,19.51
2019-06-08T09:45:19.329Z,19.50
2019-06-08T09:46:19.358Z,19.53
2019-06-08T09:47:19.332Z,19.60
2019-06-08T09:48:19.326Z,19.51
2019-06-08T09:49:19.329Z,19.54
2019-06-08T09:50:19.335Z,19.51
2019-06-08T09:51:19.365Z,19.58
2019-06-08T09:52:21.638Z,19.66
2019-06-08T09:53:26.829Z,19.61
2019-06-08T09:54:19.453Z,19.57
2019-06-08T09:55:19.344Z,19.54
2019-06-08T09:56:19.390Z,19.51
2019-06-08T09:57:19.346Z,19.33
2019-06-08T09:58:19.336Z,19.50
2019-06-08T09:59:19.338Z,19.51
2019-06-08T10:00:25.209Z,19.33
2019-06-08T10:01:19.350Z,19.51
2019-06-08T10:02:19.390Z,19.54
2019-06-08T10:03:19.400Z,19.58
2019-06-08T10:04:19.341Z,19.54
2019-06-08T10:05:19.354Z,19.57
2019-06-08T10:06:19.379Z,19.63
2019-06-08T10:07:19.366Z,19.58
2019-06-08T10:08:20.656Z,19.61
2019-06-08T10:09:19.368Z,19.69
2019-06-08T10:10:19.367Z,19.66
2019-06-08T10:11:19.382Z,19.70
2019-06-08T10:12:19.362Z,19.75
2019-06-08T10:13:19.656Z,19.75
2019-06-08T10:14:19.364Z,19.78
2019-06-08T10:15:19.352Z,19.79
2019-06-08T10:16:19.370Z,19.76
2019-06-08T10:17:20.992Z,19.86
2019-06-08T10:18:19.381Z,19.79
2019-06-08T10:19:19.366Z,19.86
2019-06-08T10:20:19.360Z,19.87
2019-06-08T10:21:21.103Z,19.91
2019-06-08T10:22:19.368Z,19.95
2019-06-08T10:23:30.933Z,19.94
2019-06-08T10:24:19.405Z,19.91
2019-06-08T10:25:19.391Z,19.95
2019-06-08T10:26:19.366Z,19.91
2019-06-08T10:27:19.377Z,19.86
2019-06-08T10:28:21.759Z,19.95
2019-06-08T10:29:19.375Z,20.03
2019-06-08T10:30:19.432Z,20.06
2019-06-08T10:31:19.384Z,20.05
2019-06-08T10:32:19.384Z,20.06
2019-06-08T10:33:19.383Z,20.08
2019-06-08T10:34:19.380Z,20.09
2019-06-08T10:35:20.985Z,20.10
2019-06-08T10:36:19.409Z,20.18
2019-06-08T10:37:19.403Z,20.30
2019-06-08T10:38:19.408Z,20.23
2019-06-08T10:39:19.392Z,20.21
2019-06-08T10:40:19.393Z,20.41
2019-06-08T10:41:21.855Z,20.28
2019-06-08T10:42:19.407Z,20.31
2019-06-08T10:43:20.019Z,20.46
2019-06-08T10:44:19.408Z,20.41
2019-06-08T10:45:19.404Z,20.30
2019-06-08T10:46:20.930Z,20.25
2019-06-08T10:47:19.399Z,20.31
2019-06-08T10:48:19.413Z,20.24
2019-06-08T10:49:19.492Z,20.25
2019-06-08T10:50:19.470Z,20.28
2019-06-08T10:51:19.434Z,20.28
2019-06-08T10:52:20.324Z,20.24
2019-06-08T10:53:19.411Z,20.34
2019-06-08T10:54:19.446Z,20.34
2019-06-08T10:55:19.438Z,20.43
2019-06-08T10:56:19.429Z,20.50
2019-06-08T10:57:19.453Z,20.54
2019-06-08T10:58:28.460Z,20.47
2019-06-08T11:00:24.856Z,20.50
2019-06-08T11:01:24.796Z,20.50
2019-06-08T11:02:24.808Z,20.53
2019-06-08T11:03:24.803Z,20.50
2019-06-08T11:04:24.772Z,20.38
2019-06-08T11:05:27.903Z,20.46
2019-06-08T11:06:24.781Z,20.46
2019-06-08T11:07:24.795Z,20.50
2019-06-08T11:08:27.377Z,20.53
2019-06-08T11:09:24.785Z,20.61
2019-06-08T11:10:24.795Z,20.47
2019-06-08T11:11:24.791Z,20.51
2019-06-08T11:12:24.792Z,20.54
2019-06-08T11:13:24.808Z,20.65
2019-06-08T11:14:24.799Z,20.58
2019-06-08T11:15:29.192Z,20.61
2019-06-08T11:16:24.822Z,20.69
2019-06-08T11:17:24.886Z,20.74
2019-06-08T11:18:24.806Z,20.62
2019-06-08T11:19:26.739Z,20.54
2019-06-08T11:20:24.842Z,20.54
2019-06-08T11:21:24.852Z,20.56
2019-06-08T11:22:24.833Z,20.69
2019-06-08T11:23:24.817Z,20.77
2019-06-08T11:24:25.459Z,20.79
2019-06-08T11:25:24.829Z,20.74
2019-06-08T11:26:25.091Z,20.74
2019-06-08T11:27:24.827Z,20.81
2019-06-08T11:28:24.839Z,20.76
2019-06-08T11:29:24.860Z,20.91
2019-06-08T11:30:28.043Z,20.91
2019-06-08T11:31:24.852Z,20.84
2019-06-08T11:32:24.859Z,20.59
2019-06-08T11:33:24.854Z,20.62
2019-06-08T11:34:24.840Z,20.72
2019-06-08T11:35:24.863Z,20.76
2019-06-08T11:36:24.861Z,20.76
2019-06-08T11:37:33.574Z,20.69
2019-06-08T11:39:38.445Z,20.86
2019-06-08T11:40:38.045Z,20.83
2019-06-08T11:42:33.866Z,21.06
2019-06-08T11:43:33.918Z,20.98
2019-06-08T11:44:33.850Z,20.90
2019-06-08T11:45:33.879Z,20.99
2019-06-08T11:46:33.853Z,21.01
2019-06-08T11:47:33.870Z,20.89
2019-06-08T11:48:33.858Z,20.99
2019-06-08T11:49:33.853Z,20.93
2019-06-08T11:50:33.850Z,20.86
2019-06-08T11:51:33.859Z,20.91
2019-06-08T11:52:33.931Z,20.90
2019-06-08T11:53:33.872Z,20.81
2019-06-08T11:54:37.386Z,20.79
2019-06-08T11:55:33.878Z,20.74
2019-06-08T11:56:33.856Z,20.79
2019-06-08T11:57:33.861Z,20.98
2019-06-08T11:58:33.901Z,20.89
2019-06-08T11:59:33.869Z,20.99
2019-06-08T12:00:33.883Z,21.09
2019-06-08T12:01:33.875Z,21.19
2019-06-08T12:02:33.869Z,21.21
2019-06-08T12:03:33.885Z,21.21
2019-06-08T12:04:33.899Z,21.21
2019-06-08T12:05:33.922Z,21.19
2019-06-08T12:06:33.903Z,21.05
2019-06-08T12:07:33.919Z,20.96
2019-06-08T12:08:33.913Z,20.96
2019-06-08T12:09:33.887Z,20.98
2019-06-08T12:10:33.927Z,21.02
2019-06-08T12:11:33.897Z,21.02
2019-06-08T12:12:33.904Z,20.90
2019-06-08T12:13:33.910Z,21.04
2019-06-08T12:14:33.898Z,21.23
2019-06-08T12:15:33.914Z,21.35
2019-06-08T12:16:33.932Z,21.34
2019-06-08T12:17:33.925Z,21.13
2019-06-08T12:18:33.936Z,21.19
2019-06-08T12:19:33.929Z,21.11
2019-06-08T12:20:33.917Z,21.17
2019-06-08T12:21:33.935Z,21.01
2019-06-08T12:22:33.925Z,21.17
2019-06-08T12:23:33.958Z,21.09
2019-06-08T12:24:42.130Z,21.17
2019-06-08T12:25:33.992Z,21.21
2019-06-08T12:26:33.945Z,21.29
2019-06-08T12:27:37.252Z,21.35
2019-06-08T12:28:33.978Z,21.50
2019-06-08T12:29:33.963Z,21.29
2019-06-08T12:30:33.958Z,21.38
2019-06-08T12:31:33.943Z,21.29
2019-06-08T12:32:33.942Z,21.35
2019-06-08T12:33:33.960Z,21.30
2019-06-08T12:34:33.948Z,21.26
2019-06-08T12:35:33.958Z,21.02
2019-06-08T12:36:33.954Z,21.06
2019-06-08T12:37:33.954Z,21.29
2019-06-08T12:38:34.741Z,21.27
2019-06-08T12:39:33.997Z,21.39
2019-06-08T12:40:33.960Z,21.53
2019-06-08T12:41:33.984Z,21.32
2019-06-08T12:42:33.989Z,21.26
2019-06-08T12:43:33.977Z,21.38
2019-06-08T12:44:33.980Z,21.39
2019-06-08T12:45:33.989Z,21.50
2019-06-08T12:46:33.977Z,21.54
2019-06-08T12:47:33.984Z,21.56
2019-06-08T12:48:33.991Z,21.39
2019-06-08T12:49:33.991Z,21.48
2019-06-08T12:50:34.004Z,21.48
2019-06-08T12:51:34.007Z,21.48
2019-06-08T12:52:33.996Z,21.51
2019-06-08T12:53:33.999Z,21.51
2019-06-08T12:54:34.006Z,21.63
2019-06-08T12:55:34.022Z,21.59
2019-06-08T12:56:34.032Z,21.64
2019-06-08T12:57:34.016Z,21.74
2019-06-08T12:58:34.005Z,21.75
2019-06-08T12:59:34.043Z,21.69
2019-06-08T13:00:34.019Z,21.76
2019-06-08T13:01:34.014Z,21.74
2019-06-08T13:02:34.029Z,21.71
2019-06-08T13:03:34.028Z,21.74
2019-06-08T13:04:34.018Z,21.75
2019-06-08T13:05:34.035Z,21.67
2019-06-08T13:06:34.056Z,21.66
2019-06-08T13:07:34.034Z,21.56
2019-06-08T13:08:34.066Z,21.66
2019-06-08T13:09:34.048Z,21.61
2019-06-08T13:10:34.058Z,21.54
2019-06-08T13:11:34.184Z,21.63
2019-06-08T13:12:34.047Z,21.75
2019-06-08T13:13:34.100Z,21.95
2019-06-08T13:14:34.092Z,21.97
2019-06-08T13:15:34.065Z,21.99
2019-06-08T13:16:34.092Z,21.91
2019-06-08T13:17:34.089Z,21.69
2019-06-08T13:18:34.068Z,21.90
2019-06-08T13:19:34.065Z,21.91
2019-06-08T13:20:34.079Z,21.95
2019-06-08T13:21:35.498Z,21.98
2019-06-08T13:22:34.076Z,21.92
2019-06-08T13:23:34.075Z,21.98